Weather at Abu Simbel Airport

Public forecast

Using degrees Celsius for public forecast. Weather courtesy of forecast.io.

Current aviation weather report (METAR) for Abu Simbel Airport

Retrieved 2020/10/20 10:00 UTC (57 minutes ago):

HEBL 201000Z 03007KT CAVOK 35/11 Q1012 NOSIG

Aviation forecast (TAF) for Abu Simbel Airport

Retrieved 2020/10/20 06:06 UTC (5 hours ago):

TAF TAF HEBL 200500Z 2006/2112 34012KT CAVOK